Time;durP1;ratioP1;P1;durP2;ratioP2;P2;SDS_P1;SDS_P2;PMS_P1;PMS_P2;Temp;Humidity;BMP_temperature;BMP_pressure;BME280_temperature;BME280_humidity;BME280_pressure;Samples;Min_cycle;Max_cycle;Signal;HPM_P1;HPM_P2
2022/10/18 02:43:24;;;;;;;11.08;5.30;;;;;;;13.86;70.24;99993.77;1785607;79;28151;-44
2022/10/18 02:45:49;;;;;;;11.43;4.97;;;;;;;13.92;69.87;99996.52;1761941;81;21555;-44
2022/10/18 02:48:15;;;;;;;14.68;4.62;;;;;;;13.91;69.75;99993.00;1761810;81;21030;-41
2022/10/18 02:50:41;;;;;;;7.78;4.85;;;;;;;13.88;69.55;99998.49;1761838;80;21003;-43
2022/10/18 02:53:07;;;;;;;10.30;5.03;;;;;;;13.85;69.69;100001.78;1761847;81;20987;-46
2022/10/18 02:55:32;;;;;;;9.93;5.37;;;;;;;13.80;69.58;99997.59;1761829;80;20991;-43
2022/10/18 02:57:58;;;;;;;10.05;5.00;;;;;;;13.79;69.61;100001.67;1761850;80;20987;-42
2022/10/18 03:00:24;;;;;;;15.10;5.87;;;;;;;13.76;69.56;100001.36;1761810;81;21022;-46
2022/10/18 03:02:51;;;;;;;12.03;5.35;;;;;;;13.71;69.58;99998.12;1761767;80;20995;-42
2022/10/18 03:05:17;;;;;;;;;;;;;;;13.69;69.91;100008.41;1764439;81;21019;-40
2022/10/18 03:07:44;;;;;;;13.80;5.33;;;;;;;13.62;70.14;100006.57;1762072;80;20409;-44
2022/10/18 03:10:10;;;;;;;;;;;;;;;13.60;69.83;100004.01;1764056;80;21030;-41
2022/10/18 03:12:36;;;;;;;7.60;4.58;;;;;;;13.55;70.19;100006.08;1761825;80;20129;-39
2022/10/18 03:15:02;;;;;;;10.98;5.28;;;;;;;13.53;69.86;100003.97;1761801;81;21026;-44
2022/10/18 03:17:28;;;;;;;9.48;4.80;;;;;;;13.51;69.93;100003.69;1761778;80;21006;-41
2022/10/18 03:19:53;;;;;;;10.32;5.12;;;;;;;13.50;70.08;100006.80;1761826;81;21023;-47
2022/10/18 03:22:19;;;;;;;6.08;4.92;;;;;;;13.48;70.17;100000.76;1761763;81;21027;-43
2022/10/18 03:24:45;;;;;;;10.78;5.20;;;;;;;13.51;70.10;100006.33;1761795;81;21003;-48
2022/10/18 03:27:11;;;;;;;16.10;4.92;;;;;;;13.52;70.14;100006.72;1761941;81;20971;-44
2022/10/18 03:29:36;;;;;;;11.00;5.25;;;;;;;13.49;70.33;100004.25;1761845;80;20987;-46
2022/10/18 03:32:03;;;;;;;13.15;5.62;;;;;;;13.48;70.57;100003.84;1761789;80;20991;-47
2022/10/18 03:34:28;;;;;;;19.35;6.97;;;;;;;13.45;70.55;100002.24;1761919;81;20966;-41
2022/10/18 03:36:56;;;;;;;13.15;5.03;;;;;;;13.47;70.79;99999.52;1761863;81;21460;-49
2022/10/18 03:39:21;;;;;;;;;;;;;;;13.45;70.72;99994.31;1764515;81;21031;-44
2022/10/18 03:41:47;;;;;;;10.53;5.35;;;;;;;13.41;70.78;99996.75;1758316;81;20105;-43
2022/10/18 03:44:13;;;;;;;10.78;5.53;;;;;;;13.43;70.66;99991.75;1748734;81;20991;-42
2022/10/18 03:46:39;;;;;;;10.80;5.95;;;;;;;13.44;70.66;99996.11;1748675;81;21687;-44
2022/10/18 03:49:05;;;;;;;9.95;5.33;;;;;;;13.43;70.87;99998.84;1748777;82;20988;-45
2022/10/18 03:51:30;;;;;;;12.40;5.45;;;;;;;13.41;70.80;100005.52;1748746;81;20960;-44
2022/10/18 03:53:56;;;;;;;12.25;5.05;;;;;;;13.41;70.76;100002.88;1748321;81;20988;-44
2022/10/18 03:56:22;;;;;;;10.88;5.37;;;;;;;13.41;70.58;100000.23;1748144;81;20983;-42
2022/10/18 03:58:48;;;;;;;9.00;5.40;;;;;;;13.42;70.48;99998.00;1748157;81;20979;-42
2022/10/18 04:01:13;;;;;;;11.70;5.00;;;;;;;13.40;70.58;99993.23;1748113;81;21069;-39
2022/10/18 04:03:39;;;;;;;18.40;5.33;;;;;;;13.41;70.65;100002.04;1748144;81;20988;-41
2022/10/18 04:06:06;;;;;;;11.57;5.50;;;;;;;13.40;70.77;100000.31;1748173;81;20996;-43
2022/10/18 04:08:32;;;;;;;8.33;5.15;;;;;;;13.39;71.36;100002.59;1748299;81;21622;-39
2022/10/18 04:10:58;;;;;;;11.75;5.33;;;;;;;13.36;71.12;100003.59;1748180;81;21027;-43
2022/10/18 04:13:23;;;;;;;10.28;5.45;;;;;;;13.35;71.16;100005.00;1748123;82;20976;-39
2022/10/18 04:15:49;;;;;;;11.63;5.20;;;;;;;13.32;71.27;100002.07;1748129;81;20975;-38
2022/10/18 04:18:15;;;;;;;13.85;5.70;;;;;;;13.30;71.28;100006.56;1748134;81;20988;-42
2022/10/18 04:20:41;;;;;;;15.03;5.10;;;;;;;13.28;71.55;100003.16;1748136;81;21023;-41
2022/10/18 04:23:06;;;;;;;15.40;5.33;;;;;;;13.25;71.39;99995.39;1748103;81;20988;-40
2022/10/18 04:25:32;;;;;;;11.03;5.58;;;;;;;13.27;71.42;99999.27;1748140;81;20995;-42
2022/10/18 04:27:58;;;;;;;15.13;5.05;;;;;;;13.24;71.70;99993.67;1748146;81;20981;-45
2022/10/18 04:30:23;;;;;;;12.93;5.42;;;;;;;13.22;71.78;99998.19;1748089;81;20991;-43
2022/10/18 04:32:49;;;;;;;11.83;5.92;;;;;;;13.21;71.78;99996.50;1748197;81;21027;-40
2022/10/18 04:35:15;;;;;;;11.68;5.70;;;;;;;13.17;71.40;99997.59;1748187;82;21015;-43
2022/10/18 04:37:41;;;;;;;10.98;5.62;;;;;;;13.15;71.84;99992.86;1748129;82;20999;-42
2022/10/18 04:40:08;;;;;;;16.40;5.30;;;;;;;13.14;71.68;99988.53;1748086;81;21486;-42
2022/10/18 04:42:34;;;;;;;8.18;5.15;;;;;;;13.12;71.54;99987.77;1754343;81;21054;-39
2022/10/18 04:45:00;;;;;;;15.13;5.53;;;;;;;13.12;71.50;99986.45;1761457;81;20987;-46
2022/10/18 04:47:25;;;;;;;11.28;4.80;;;;;;;13.12;71.51;99986.45;1761442;81;21007;-43
2022/10/18 04:49:51;;;;;;;8.73;5.50;;;;;;;13.13;71.38;99985.49;1761462;81;21034;-44
2022/10/18 04:52:17;;;;;;;11.73;5.60;;;;;;;13.13;71.37;99990.77;1761477;81;20988;-39
2022/10/18 04:54:42;;;;;;;16.20;5.45;;;;;;;13.14;71.20;99985.41;1761472;81;20987;-41
2022/10/18 04:57:08;;;;;;;10.40;5.05;;;;;;;13.12;71.30;99982.48;1761492;81;21027;-42
2022/10/18 04:59:34;;;;;;;13.25;5.92;;;;;;;13.11;71.36;99982.09;1761453;81;21023;-45
2022/10/18 05:02:00;;;;;;;9.73;5.25;;;;;;;13.09;71.22;99982.17;1761523;81;20984;-43
2022/10/18 05:04:25;;;;;;;9.40;4.95;;;;;;;13.06;71.28;99985.84;1761522;81;20990;-43
2022/10/18 05:06:51;;;;;;;8.63;5.75;;;;;;;13.06;71.44;99988.48;1761496;81;21484;-44
2022/10/18 05:09:17;;;;;;;11.30;5.83;;;;;;;13.06;71.46;99983.20;1761594;81;21610;-40
2022/10/18 05:11:42;;;;;;;15.45;7.72;;;;;;;13.05;71.42;99986.77;1761469;81;21472;-43
2022/10/18 05:14:09;;;;;;;10.18;5.50;;;;;;;13.02;71.73;99988.27;1761446;80;21467;-47
2022/10/18 05:16:35;;;;;;;17.37;6.67;;;;;;;12.98;71.80;99985.86;1761830;81;21025;-44
2022/10/18 05:19:04;;;;;;;13.85;6.40;;;;;;;12.99;72.05;99987.11;1761455;81;21640;-40
2022/10/18 05:21:30;;;;;;;19.00;5.83;;;;;;;13.02;71.75;99991.36;1761429;81;21031;-39
2022/10/18 05:23:56;;;;;;;16.95;6.05;;;;;;;12.99;71.71;99994.19;1761448;81;20995;-43
2022/10/18 05:26:22;;;;;;;11.35;5.08;;;;;;;12.99;71.76;99989.75;1761455;80;20963;-46
2022/10/18 05:28:49;;;;;;;14.18;5.80;;;;;;;13.00;71.58;99990.59;1761390;81;20967;-47
2022/10/18 05:31:15;;;;;;;;;;;;;;;12.99;71.65;99986.27;1764105;81;21455;-42
2022/10/18 05:33:41;;;;;;;12.53;5.90;;;;;;;12.97;71.80;99988.98;1761503;81;20112;-43
2022/10/18 05:36:07;;;;;;;11.97;5.85;;;;;;;12.97;71.88;99985.47;1761599;81;21503;-43
2022/10/18 05:38:33;;;;;;;9.73;6.17;;;;;;;12.98;72.02;99989.83;1761664;81;21006;-47
2022/10/18 05:41:02;;;;;;;11.97;6.20;;;;;;;12.96;72.33;99983.78;1761518;81;21007;-44
2022/10/18 05:43:29;;;;;;;12.55;5.97;;;;;;;12.96;71.88;99991.22;1761233;80;21027;-50
2022/10/18 05:45:55;;;;;;;14.13;6.78;;;;;;;12.97;72.15;99990.30;1761492;80;21031;-48
2022/10/18 05:48:21;;;;;;;7.10;5.90;;;;;;;12.99;72.00;99991.07;1761439;81;21472;-39
2022/10/18 05:50:47;;;;;;;15.50;5.83;;;;;;;13.00;71.79;99993.23;1761443;81;20995;-45
2022/10/18 05:53:12;;;;;;;19.73;5.72;;;;;;;12.99;71.69;99992.39;1761419;81;20999;-42
2022/10/18 05:55:38;;;;;;;15.03;6.25;;;;;;;13.00;71.68;99987.95;1761449;81;21003;-43
2022/10/18 05:58:04;;;;;;;16.62;6.60;;;;;;;13.04;71.69;99996.96;1761368;80;21003;-43
2022/10/18 06:00:30;;;;;;;9.13;5.37;;;;;;;13.09;71.54;99993.20;1761401;81;20991;-42
2022/10/18 06:02:56;;;;;;;9.18;6.12;;;;;;;13.12;71.35;99994.37;1761385;81;21021;-42
2022/10/18 06:05:21;;;;;;;10.40;6.10;;;;;;;13.17;71.43;99993.63;1761444;81;20978;-42
2022/10/18 06:07:47;;;;;;;8.50;5.67;;;;;;;13.18;71.06;99991.38;1761428;81;20999;-44
2022/10/18 06:10:13;;;;;;;16.65;6.85;;;;;;;13.20;70.91;99993.47;1761368;81;21034;-42
2022/10/18 06:12:39;;;;;;;14.55;6.65;;;;;;;13.18;70.82;100001.95;1761395;81;20995;-46
2022/10/18 06:15:06;;;;;;;9.23;5.92;;;;;;;13.22;70.82;99995.11;1761504;81;21472;-43
2022/10/18 06:17:32;;;;;;;11.68;6.22;;;;;;;13.22;70.78;100003.47;1761361;80;21034;-44
2022/10/18 06:19:58;;;;;;;19.17;6.12;;;;;;;13.28;70.57;100000.52;1761397;81;21059;-45
2022/10/18 06:22:24;;;;;;;14.35;6.00;;;;;;;13.30;70.41;100002.59;1760042;81;20932;-37
2022/10/18 06:24:49;;;;;;;9.75;5.42;;;;;;;13.32;70.53;100009.16;1761448;81;21361;-40
2022/10/18 06:27:15;;;;;;;15.72;5.53;;;;;;;13.34;70.29;100006.80;1761330;81;20971;-40
2022/10/18 06:29:41;;;;;;;11.73;6.03;;;;;;;13.34;70.06;100012.08;1761297;81;20996;-42
2022/10/18 06:32:07;;;;;;;7.08;5.10;;;;;;;13.38;70.09;100007.00;1761440;81;20994;-42
2022/10/18 06:34:33;;;;;;;10.78;5.25;;;;;;;13.39;70.00;100012.69;1761470;81;20960;-39
2022/10/18 06:37:00;;;;;;;19.98;5.67;;;;;;;13.43;70.01;100008.93;1761308;81;21425;-40
2022/10/18 06:39:26;;;;;;;16.00;5.58;;;;;;;13.49;70.03;100016.13;1761335;81;21492;-40
2022/10/18 06:41:52;;;;;;;15.40;5.35;;;;;;;13.52;69.91;100015.97;1761137;81;21030;-40
2022/10/18 06:44:18;;;;;;;14.80;5.37;;;;;;;13.53;69.80;100018.98;1748510;81;21015;-42
2022/10/18 06:46:46;;;;;;;10.80;5.17;;;;;;;13.57;69.56;100012.58;1748192;81;20972;-39
2022/10/18 06:49:13;;;;;;;11.60;5.10;;;;;;;13.61;69.19;100017.62;1747950;81;21512;-40
2022/10/18 06:51:40;;;;;;;40.63;6.65;;;;;;;13.66;69.47;100014.73;1748089;81;21047;-41
2022/10/18 06:54:06;;;;;;;13.45;5.35;;;;;;;13.68;69.31;100020.78;1748143;82;21047;-42
2022/10/18 06:56:34;;;;;;;11.05;5.40;;;;;;;13.74;69.50;100013.81;1747986;81;21404;-42
2022/10/18 06:59:00;;;;;;;16.62;5.40;;;;;;;13.76;69.10;100018.53;1747742;81;21423;-40
2022/10/18 07:01:27;;;;;;;11.55;5.58;;;;;;;13.80;69.01;100014.77;1747333;81;21031;-38
2022/10/18 07:03:54;;;;;;;;;;;;;;;13.87;69.19;100009.99;1749255;81;21047;-40
2022/10/18 07:06:21;;;;;;;10.98;4.97;;;;;;;13.89;68.94;100004.14;1747963;81;20129;-39
2022/10/18 07:08:51;;;;;;;13.83;5.75;;;;;;;13.94;68.73;99998.61;1747959;81;21035;-39
2022/10/18 07:11:23;;;;;;;11.93;6.45;;;;;;;14.00;68.77;100004.37;1747864;81;21078;-41
2022/10/18 07:13:49;;;;;;;17.45;5.87;;;;;;;14.04;68.51;100004.20;1747271;81;21615;-40
2022/10/18 07:16:18;;;;;;;12.80;5.27;;;;;;;14.06;68.25;100008.48;1748177;81;20999;-39
2022/10/18 07:18:48;;;;;;;10.40;5.58;;;;;;;14.12;68.35;100006.78;1747853;81;21047;-44
2022/10/18 07:21:17;;;;;;;8.70;5.72;;;;;;;14.16;68.20;100004.33;1747695;81;21493;-40
2022/10/18 07:26:32;;;;;;;14.43;6.00;;;;;;;14.27;67.61;100002.86;1803929;78;22942;-42
2022/10/18 07:29:07;;;;;;;10.18;5.92;;;;;;;14.27;67.82;100006.34;1780969;80;20994;-44
2022/10/18 07:31:34;;;;;;;11.03;5.70;;;;;;;14.34;67.92;100006.84;1777255;81;20994;-43
2022/10/18 07:34:00;;;;;;;12.20;6.05;;;;;;;14.40;67.69;100002.50;1787458;80;20964;-45
2022/10/18 07:36:26;;;;;;;8.18;5.37;;;;;;;14.45;67.69;100007.53;1792374;80;21594;-41
2022/10/18 07:38:52;;;;;;;11.30;5.53;;;;;;;14.51;67.63;99996.56;1792505;80;21530;-43
2022/10/18 07:41:18;;;;;;;13.43;6.08;;;;;;;14.54;67.59;100001.20;1792233;79;20977;-41
2022/10/18 07:43:47;;;;;;;8.70;5.90;;;;;;;14.55;67.55;100003.36;1792461;80;20962;-39
2022/10/18 07:46:14;;;;;;;13.90;5.97;;;;;;;14.59;67.67;99997.84;1792403;79;21478;-42
2022/10/18 07:48:40;;;;;;;10.32;5.60;;;;;;;14.63;67.66;99997.66;1792597;80;21000;-39
2022/10/18 07:51:06;;;;;;;13.45;5.97;;;;;;;14.68;67.74;99995.56;1792715;80;20982;-39
2022/10/18 07:53:33;;;;;;;11.00;5.62;;;;;;;14.68;67.87;99989.81;1797206;79;20977;-41
2022/10/18 07:56:06;;;;;;;15.55;6.50;;;;;;;14.73;67.85;99990.84;1806233;79;21017;-39
2022/10/18 07:58:32;;;;;;;13.80;6.90;;;;;;;14.74;67.91;99983.29;1800263;79;21015;-44
2022/10/18 08:01:07;;;;;;;11.08;6.47;;;;;;;14.77;68.03;99977.33;1792338;80;20986;-42
2022/10/18 08:03:34;;;;;;;20.65;7.08;;;;;;;14.81;68.28;99975.80;1792880;80;20990;-40
2022/10/18 08:06:00;;;;;;;9.73;6.55;;;;;;;14.86;68.34;99973.27;1792781;79;21025;-35
2022/10/18 08:08:27;;;;;;;10.23;6.58;;;;;;;14.92;68.48;99975.52;1792801;80;21499;-39
2022/10/18 08:10:54;;;;;;;12.25;6.45;;;;;;;14.97;68.34;99968.14;1792891;80;20954;-41
2022/10/18 08:13:20;;;;;;;15.63;6.33;;;;;;;15.04;68.34;99971.23;1792790;79;20998;-39
2022/10/18 08:15:46;;;;;;;12.28;6.30;;;;;;;15.11;68.45;99970.39;1792726;79;21271;-46
2022/10/18 08:18:12;;;;;;;12.80;6.80;;;;;;;15.19;68.14;99968.57;1792733;79;20978;-39
2022/10/18 08:20:44;;;;;;;11.28;6.97;;;;;;;15.26;67.99;99966.78;1792809;79;20997;-38
2022/10/18 08:23:10;;;;;;;15.58;7.30;;;;;;;15.37;67.88;99967.39;1791478;79;21006;-42
2022/10/18 08:25:35;;;;;;;10.95;6.53;;;;;;;15.47;67.84;99964.53;1791861;80;21029;-44
2022/10/18 08:28:01;;;;;;;11.10;6.87;;;;;;;15.64;67.68;99963.91;1793436;80;21033;-44
2022/10/18 08:30:27;;;;;;;20.77;6.33;;;;;;;15.76;67.07;99967.59;1793609;80;20982;-43
2022/10/18 08:32:53;;;;;;;13.18;7.00;;;;;;;15.85;66.03;99973.61;1780969;80;21033;-44
2022/10/18 08:35:19;;;;;;;16.25;6.72;;;;;;;16.08;66.53;99974.25;1764350;80;21002;-40
2022/10/18 08:37:45;;;;;;;13.10;6.75;;;;;;;16.20;66.03;99971.72;1786747;80;20963;-40
2022/10/18 08:40:13;;;;;;;15.10;7.47;;;;;;;16.21;64.67;99968.09;1770891;80;21449;-43
2022/10/18 08:43:07;;;;;;;11.68;7.12;;;;;;;16.38;65.45;99969.62;1790824;80;20967;-42
2022/10/18 08:45:40;;;;;;;10.30;7.50;;;;;;;16.51;65.65;99968.64;1780748;80;21009;-39
2022/10/18 08:48:20;;;;;;;13.08;7.40;;;;;;;16.59;65.35;99965.94;1770058;80;20948;-39
2022/10/18 08:50:47;;;;;;;11.90;7.20;;;;;;;16.65;65.33;99964.20;1774120;80;20977;-42
2022/10/18 08:53:27;;;;;;;14.53;8.10;;;;;;;16.65;65.21;99960.22;1784497;80;20954;-40
2022/10/18 08:56:13;;;;;;;17.87;7.50;;;;;;;16.66;65.28;99964.09;1767221;80;20928;-40
2022/10/18 08:58:38;;;;;;;15.32;7.47;;;;;;;16.67;65.46;99960.95;1742894;81;21046;-43
2022/10/18 09:01:35;;;;;;;10.58;7.62;;;;;;;16.66;65.55;99962.77;1782102;80;20950;-42
2022/10/18 09:04:18;;;;;;;11.22;8.73;;;;;;;16.65;65.64;99949.59;1749161;81;20947;-39
2022/10/18 09:06:52;;;;;;;20.23;8.75;;;;;;;16.61;65.70;99948.96;1789018;80;20935;-40
2022/10/18 09:10:04;;;;;;;14.43;8.60;;;;;;;16.62;65.87;99955.11;1784038;79;21498;-42
2022/10/18 09:13:06;;;;;;;17.85;9.08;;;;;;;16.61;65.82;99950.78;1775046;80;21606;-43
2022/10/18 09:15:52;;;;;;;17.00;9.28;;;;;;;16.53;65.80;99953.10;1765603;80;20960;-42
2022/10/18 09:18:47;;;;;;;17.00;9.98;;;;;;;16.47;66.02;99949.91;1787843;79;20956;-42
2022/10/18 09:21:40;;;;;;;22.98;9.83;;;;;;;16.49;66.06;99945.34;1725762;83;20995;-39
2022/10/18 09:24:23;;;;;;;18.75;10.32;;;;;;;16.48;65.98;99947.64;1705428;83;20961;-44
2022/10/18 09:26:54;;;;;;;15.70;9.50;;;;;;;16.43;66.34;99947.11;1684926;83;21032;-44
2022/10/18 09:30:09;;;;;;;14.70;9.25;;;;;;;16.43;66.49;99947.11;1654897;84;21003;-43
2022/10/18 09:32:55;;;;;;;20.05;9.80;;;;;;;16.45;66.61;99943.02;1674007;84;21042;-42
2022/10/18 09:35:44;;;;;;;16.00;9.58;;;;;;;16.50;66.73;99944.88;1670413;84;21012;-39
2022/10/18 09:38:15;;;;;;;19.48;10.50;;;;;;;16.50;66.98;99940.42;1609509;88;21556;-44
2022/10/18 09:40:50;;;;;;;16.05;9.85;;;;;;;16.55;67.09;99927.29;1626552;87;21474;-46
2022/10/18 09:43:21;;;;;;;14.00;10.50;;;;;;;16.61;67.05;99929.53;1612898;88;21016;-41
2022/10/18 09:45:48;;;;;;;17.92;10.88;;;;;;;16.66;66.98;99926.92;1626378;88;21041;-37
2022/10/18 09:48:29;;;;;;;19.62;10.78;;;;;;;16.68;67.07;99924.13;1628402;88;21525;-40
2022/10/18 09:51:20;;;;;;;15.68;10.48;;;;;;;16.72;67.16;99919.00;1627810;88;21752;-36
2022/10/18 09:53:57;;;;;;;17.07;10.55;;;;;;;16.77;67.25;99920.85;1625789;86;21547;-41
2022/10/18 09:56:30;;;;;;;16.75;10.15;;;;;;;16.80;67.12;99913.13;1627304;88;21478;-37
2022/10/18 09:58:56;;;;;;;17.48;10.18;;;;;;;16.86;67.09;99910.93;1674787;85;21008;-46
2022/10/18 10:01:25;;;;;;;19.30;10.63;;;;;;;16.94;67.18;99901.56;1683972;84;21625;-39
2022/10/18 10:03:52;;;;;;;15.75;10.98;;;;;;;16.99;67.17;99899.39;1657730;85;20966;-40
2022/10/18 10:06:33;;;;;;;15.58;11.57;;;;;;;16.97;67.56;99897.33;1685329;84;21052;-39
2022/10/18 10:09:15;;;;;;;22.13;11.70;;;;;;;17.02;67.58;99889.89;1664815;85;21072;-41
2022/10/18 10:11:48;;;;;;;19.87;11.63;;;;;;;17.07;67.65;99889.08;1680243;85;21583;-43
2022/10/18 10:14:21;;;;;;;19.82;11.68;;;;;;;17.11;67.67;99890.55;1719892;81;20947;-38
2022/10/18 10:16:54;;;;;;;23.83;11.90;;;;;;;17.16;67.57;99889.73;1742684;81;21243;-39
2022/10/18 10:19:55;;;;;;;19.10;11.40;;;;;;;17.17;67.74;99882.14;1752484;81;20967;-36
2022/10/18 10:22:38;;;;;;;18.12;11.73;;;;;;;17.22;67.69;99882.62;1729534;80;21018;-44
2022/10/18 10:25:05;;;;;;;18.95;12.35;;;;;;;17.27;67.95;99870.34;1730880;81;21476;-45
2022/10/18 10:27:43;;;;;;;24.92;12.28;;;;;;;17.35;67.92;99870.60;1758600;80;21021;-45
2022/10/18 10:30:31;;;;;;;19.10;10.93;;;;;;;17.42;67.72;99867.85;1771783;80;21505;-42
2022/10/18 10:32:57;;;;;;;18.35;11.83;;;;;;;17.50;67.84;99861.12;1765747;80;21036;-44
2022/10/18 10:35:39;;;;;;;19.48;11.60;;;;;;;17.57;67.77;99871.66;1774204;80;21019;-38
2022/10/18 10:38:06;;;;;;;28.20;11.80;;;;;;;17.65;67.70;99862.14;1745107;81;21491;-46
2022/10/18 10:40:45;;;;;;;12.98;10.78;;;;;;;17.75;67.83;99856.13;1758486;81;20990;-40
2022/10/18 10:43:33;;;;;;;18.95;11.73;;;;;;;17.82;67.49;99852.03;1755209;80;20940;-44
2022/10/18 10:46:09;;;;;;;19.45;11.65;;;;;;;17.91;67.67;99852.69;1745138;81;20936;-39
2022/10/18 10:48:50;;;;;;;23.10;12.80;;;;;;;18.01;67.42;99843.04;1758332;81;20979;-41
2022/10/18 10:51:29;;;;;;;18.05;12.05;;;;;;;18.11;67.17;99834.34;1761972;80;21006;-40
2022/10/18 10:54:17;;;;;;;18.27;11.85;;;;;;;18.20;67.25;99837.61;1743581;82;20975;-44
2022/10/18 10:57:13;;;;;;;18.95;11.88;;;;;;;18.21;66.37;99832.16;1744360;81;21637;-40
2022/10/18 10:59:46;;;;;;;21.40;11.73;;;;;;;18.27;66.37;99829.99;1755349;81;20947;-37
2022/10/18 11:02:22;;;;;;;20.20;11.43;;;;;;;18.36;66.30;99835.42;1760885;81;20995;-40
2022/10/18 11:04:53;;;;;;;20.08;12.25;;;;;;;18.42;65.90;99826.94;1765121;81;21007;-43
2022/10/18 11:07:31;;;;;;;22.80;11.88;;;;;;;18.47;65.97;99824.42;1770819;81;20995;-43
2022/10/18 11:10:11;;;;;;;18.77;13.60;;;;;;;18.56;65.78;99827.19;1755177;81;20924;-39
2022/10/18 11:12:48;;;;;;;22.30;13.25;;;;;;;18.60;65.60;99817.97;1744418;81;21480;-39
2022/10/18 11:15:27;;;;;;;19.20;13.20;;;;;;;18.63;65.52;99811.56;1759517;81;20939;-38
2022/10/18 11:18:19;;;;;;;19.12;12.68;;;;;;;18.67;65.50;99807.67;1744472;81;21456;-44
2022/10/18 11:20:59;;;;;;;23.05;13.40;;;;;;;18.66;65.28;99803.30;1766298;80;20947;-51
2022/10/18 11:23:32;;;;;;;18.37;13.50;;;;;;;18.64;65.15;99793.76;1762196;81;21014;-42
2022/10/18 11:26:32;;;;;;;22.55;13.28;;;;;;;18.64;65.14;99789.27;1763751;81;20992;-41
2022/10/18 11:29:32;;;;;;;22.30;13.05;;;;;;;18.66;65.27;99779.33;1764308;81;20975;-45
2022/10/18 11:32:23;;;;;;;21.68;13.65;;;;;;;18.70;65.26;99777.27;1745279;82;20976;-44
2022/10/18 11:35:03;;;;;;;18.92;14.10;;;;;;;18.75;65.25;99769.75;1739056;80;30291;-45
2022/10/18 11:38:18;;;;;;;22.22;13.48;;;;;;;18.78;65.10;99773.01;1683736;84;21002;-43
2022/10/18 11:41:06;;;;;;;22.60;13.72;;;;;;;18.84;65.17;99767.69;1690615;84;21006;-45
2022/10/18 11:43:52;;;;;;;22.10;13.83;;;;;;;18.90;64.90;99762.34;1702912;84;20982;-43
2022/10/18 11:46:32;;;;;;;18.82;13.43;;;;;;;18.98;65.07;99750.57;1691910;82;21131;-40
2022/10/18 11:49:12;;;;;;;22.85;13.38;;;;;;;19.00;64.89;99747.29;1688431;84;21030;-47
2022/10/18 11:52:09;;;;;;;28.38;13.83;;;;;;;19.06;64.59;99738.77;1702674;84;20963;-39
2022/10/18 11:55:08;;;;;;;21.37;13.03;;;;;;;19.25;64.82;99738.58;1692348;84;21015;-51
2022/10/18 11:58:23;;;;;;;26.30;14.15;;;;;;;19.41;64.39;99735.44;1695970;82;21026;-53
2022/10/18 12:01:15;;;;;;;18.82;12.80;;;;;;;19.56;64.22;99728.31;1695262;84;20995;-49
2022/10/18 12:04:10;;;;;;;23.02;14.03;;;;;;;19.69;63.80;99721.92;1683158;84;21026;-41
2022/10/18 12:06:40;;;;;;;20.55;13.40;;;;;;;19.81;63.86;99713.36;1706767;84;20966;-45
2022/10/18 12:09:20;;;;;;;21.97;14.30;;;;;;;19.91;63.45;99719.09;1691243;82;20974;-48
2022/10/18 12:12:03;;;;;;;21.52;13.58;;;;;;;19.98;63.40;99718.58;1701604;84;20995;-46
2022/10/18 12:14:39;;;;;;;22.02;13.50;;;;;;;20.00;63.18;99712.11;1691496;84;21074;-40
2022/10/18 12:17:36;;;;;;;25.53;13.27;;;;;;;19.92;62.92;99711.45;1686038;84;20989;-42
2022/10/18 12:20:13;;;;;;;23.45;12.98;;;;;;;19.91;62.93;99708.42;1699912;84;21347;-42
2022/10/18 12:23:03;;;;;;;21.20;13.80;;;;;;;19.89;62.86;99703.70;1690522;82;21030;-41
2022/10/18 12:25:36;;;;;;;25.32;13.98;;;;;;;19.79;62.95;99701.48;1701955;84;20995;-42
2022/10/18 12:28:13;;;;;;;28.12;13.40;;;;;;;19.85;63.21;99701.46;1703078;83;21490;-40
2022/10/18 12:31:02;;;;;;;20.90;13.22;;;;;;;20.03;63.00;99693.16;1701574;84;20975;-41
2022/10/18 12:33:36;;;;;;;22.05;12.47;;;;;;;20.16;62.62;99700.92;1689214;84;21000;-44
2022/10/18 12:36:22;;;;;;;18.30;13.32;;;;;;;20.25;62.70;99695.27;1699309;84;20981;-43
2022/10/18 12:38:53;;;;;;;18.37;13.22;;;;;;;20.45;62.57;99687.63;1698627;84;20965;-45
2022/10/18 12:41:23;;;;;;;18.75;13.60;;;;;;;20.95;62.10;99680.00;1696298;84;20965;-41
2022/10/18 12:43:54;;;;;;;19.10;13.90;;;;;;;21.12;61.10;99674.91;1699490;84;20953;-42
2022/10/18 12:46:20;;;;;;;17.25;13.15;;;;;;;21.03;60.61;99673.46;1698767;83;20967;-43
2022/10/18 12:49:04;;;;;;;19.07;13.53;;;;;;;20.97;60.72;99668.66;1690798;84;21001;-41
2022/10/18 12:51:30;;;;;;;21.15;13.62;;;;;;;20.95;60.44;99671.14;1698382;84;21058;-41
2022/10/18 12:54:09;;;;;;;18.98;12.82;;;;;;;21.35;59.91;99658.05;1696370;84;21130;-45
2022/10/18 12:56:41;;;;;;;18.50;13.45;;;;;;;21.38;58.71;99659.94;1692296;83;21391;-44
2022/10/18 12:59:18;;;;;;;18.73;14.35;;;;;;;21.23;59.68;99648.03;1703307;83;21038;-39
2022/10/18 13:01:53;;;;;;;;;;;;;;;21.06;59.76;99637.56;1705246;83;20983;-40
2022/10/18 13:04:33;;;;;;;22.77;13.05;;;;;;;20.83;59.50;99635.69;1701393;84;20111;-42
2022/10/18 13:07:13;;;;;;;19.60;12.95;;;;;;;20.79;60.13;99629.81;1701325;84;21437;-43
2022/10/18 13:09:43;;;;;;;22.73;12.63;;;;;;;21.19;59.74;99623.88;1691659;84;20979;-43
2022/10/18 13:12:14;;;;;;;23.10;12.73;;;;;;;21.19;59.29;99626.08;1701452;84;20953;-43
2022/10/18 13:15:05;;;;;;;18.32;12.15;;;;;;;21.59;59.36;99623.64;1702036;84;21030;-41
2022/10/18 13:18:11;;;;;;;22.00;11.75;;;;;;;22.26;57.98;99627.44;1700099;84;21025;-44
2022/10/18 13:20:45;;;;;;;19.70;12.63;;;;;;;23.05;56.93;99622.27;1667492;84;21035;-44
2022/10/18 13:23:54;;;;;;;18.60;12.20;;;;;;;24.35;54.19;99627.88;1701037;84;20960;-40
2022/10/18 13:26:55;;;;;;;19.85;12.63;;;;;;;25.05;49.59;99613.98;1703369;84;21544;-43
2022/10/18 13:29:35;;;;;;;22.62;11.88;;;;;;;25.95;50.80;99614.23;1707841;84;20987;-40
2022/10/18 13:32:40;;;;;;;14.95;10.78;;;;;;;26.54;49.61;99617.73;1686093;84;21014;-40
2022/10/18 13:35:47;;;;;;;18.85;11.22;;;;;;;26.96;47.61;99616.88;1688075;84;21010;-42
2022/10/18 13:38:56;;;;;;;17.10;11.05;;;;;;;27.19;46.12;99605.52;1676284;84;21440;-46
2022/10/18 13:41:30;;;;;;;15.23;11.20;;;;;;;27.04;43.64;99613.29;1682396;84;21801;-44
2022/10/18 13:44:10;;;;;;;15.35;11.12;;;;;;;26.91;45.79;99617.97;1691750;84;20977;-40
2022/10/18 13:46:44;;;;;;;14.90;11.03;;;;;;;26.32;45.84;99620.73;1693987;84;21030;-42
2022/10/18 13:49:39;;;;;;;18.70;11.73;;;;;;;26.03;45.74;99614.20;1700267;84;20959;-41
2022/10/18 13:52:50;;;;;;;18.40;11.30;;;;;;;25.86;46.16;99616.08;1688322;84;21502;-46
2022/10/18 13:55:33;;;;;;;19.10;11.38;;;;;;;25.45;46.44;99608.19;1707356;84;21046;-41
2022/10/18 13:58:49;;;;;;;23.40;11.73;;;;;;;24.73;47.51;99596.02;1686510;84;21551;-43
2022/10/18 14:01:24;;;;;;;16.87;11.55;;;;;;;23.90;48.78;99589.69;1685666;84;21035;-42
2022/10/18 14:03:55;;;;;;;17.87;12.70;;;;;;;23.00;50.55;99578.47;1684595;84;20955;-43
2022/10/18 14:06:26;;;;;;;26.95;12.65;;;;;;;22.30;52.71;99559.16;1694976;84;21010;-43
2022/10/18 14:09:23;;;;;;;22.32;13.03;;;;;;;21.94;53.04;99560.95;1694618;84;20943;-45
2022/10/18 14:12:33;;;;;;;18.62;12.73;;;;;;;21.62;53.84;99557.77;1708344;84;20955;-41
2022/10/18 14:15:25;;;;;;;19.10;13.08;;;;;;;21.30;54.62;99551.48;1689229;84;20994;-40
2022/10/18 14:18:01;;;;;;;18.80;13.40;;;;;;;20.79;56.39;99555.45;1705641;84;21464;-40
2022/10/18 14:20:43;;;;;;;16.35;12.68;;;;;;;20.55;57.06;99547.87;1695849;84;20990;-41
2022/10/18 14:23:19;;;;;;;25.10;13.28;;;;;;;20.28;58.08;99543.61;1699663;84;20998;-45
2022/10/18 14:25:45;;;;;;;27.22;13.72;;;;;;;20.09;58.56;99536.92;1704177;84;21484;-44
2022/10/18 14:28:18;;;;;;;20.15;13.83;;;;;;;19.94;58.82;99532.00;1684064;84;21022;-42
2022/10/18 14:30:55;;;;;;;19.80;13.93;;;;;;;19.77;60.13;99531.83;1686819;84;20975;-43
2022/10/18 14:33:37;;;;;;;23.50;14.43;;;;;;;19.65;60.43;99544.42;1698084;84;21441;-43
2022/10/18 14:36:13;;;;;;;23.73;13.32;;;;;;;19.54;61.21;99548.88;1682229;84;20967;-41
2022/10/18 14:38:52;;;;;;;24.70;14.87;;;;;;;19.39;62.02;99542.22;1685055;84;21459;-45